sensor_id;sensor_type;location;lat;lon;timestamp;temperature;humidity
38936;DHT22;25541;47.458;9.644;2022-11-11T03:48:47;6.60;99.90
38936;DHT22;25541;47.458;9.644;2022-11-11T03:51:13;6.70;99.90
38936;DHT22;25541;47.458;9.644;2022-11-11T03:53:38;6.70;99.90
38936;DHT22;25541;47.458;9.644;2022-11-11T03:56:04;6.70;99.90
38936;DHT22;25541;47.458;9.644;2022-11-11T03:58:31;6.70;99.90
38936;DHT22;25541;47.458;9.644;2022-11-11T04:00:56;6.70;99.90
38936;DHT22;25541;47.458;9.644;2022-11-11T04:03:22;6.60;99.90
38936;DHT22;25541;47.458;9.644;2022-11-11T04:06:08;6.60;99.90
38936;DHT22;25541;47.458;9.644;2022-11-11T04:08:53;6.60;99.90
38936;DHT22;25541;47.458;9.644;2022-11-11T04:11:42;6.50;99.90
38936;DHT22;25541;47.458;9.644;2022-11-11T04:14:11;6.40;99.90
38936;DHT22;25541;47.458;9.644;2022-11-11T04:16:56;6.40;99.90
38936;DHT22;25541;47.458;9.644;2022-11-11T04:19:22;6.40;99.90
38936;DHT22;25541;47.458;9.644;2022-11-11T04:22:06;6.20;99.90
38936;DHT22;25541;47.458;9.644;2022-11-11T04:24:32;6.20;99.90
38936;DHT22;25541;47.458;9.644;2022-11-11T04:27:17;6.20;99.90
38936;DHT22;25541;47.458;9.644;2022-11-11T04:29:43;6.20;99.90
38936;DHT22;25541;47.458;9.644;2022-11-11T04:32:11;6.20;99.90
38936;DHT22;25541;47.458;9.644;2022-11-11T04:35:00;6.10;99.90
38936;DHT22;25541;47.458;9.644;2022-11-11T04:37:30;6.20;99.90
38936;DHT22;25541;47.458;9.644;2022-11-11T04:39:56;6.20;99.90
38936;DHT22;25541;47.458;9.644;2022-11-11T04:42:40;6.20;99.90
38936;DHT22;25541;47.458;9.644;2022-11-11T04:45:08;6.10;99.90
38936;DHT22;25541;47.458;9.644;2022-11-11T04:50:26;6.10;99.90
38936;DHT22;25541;47.458;9.644;2022-11-11T04:52:52;6.10;99.90
38936;DHT22;25541;47.458;9.644;2022-11-11T04:55:18;6.00;99.90
38936;DHT22;25541;47.458;9.644;2022-11-11T04:58:03;6.00;99.90
38936;DHT22;25541;47.458;9.644;2022-11-11T05:00:28;6.00;99.90
38936;DHT22;25541;47.458;9.644;2022-11-11T05:02:55;6.00;99.90
38936;DHT22;25541;47.458;9.644;2022-11-11T05:08:27;5.80;99.90
38936;DHT22;25541;47.458;9.644;2022-11-11T05:11:11;5.80;99.90
38936;DHT22;25541;47.458;9.644;2022-11-11T05:13:37;5.80;99.90
38936;DHT22;25541;47.458;9.644;2022-11-11T05:16:24;5.70;99.90
38936;DHT22;25541;47.458;9.644;2022-11-11T05:19:11;5.70;99.90
38936;DHT22;25541;47.458;9.644;2022-11-11T05:21:59;5.70;99.90
38936;DHT22;25541;47.458;9.644;2022-11-11T05:24:27;5.70;99.90
38936;DHT22;25541;47.458;9.644;2022-11-11T05:27:12;5.70;99.90
38936;DHT22;25541;47.458;9.644;2022-11-11T05:29:37;5.80;99.90
38936;DHT22;25541;47.458;9.644;2022-11-11T05:32:03;5.80;99.90
38936;DHT22;25541;47.458;9.644;2022-11-11T05:34:29;5.80;99.90
38936;DHT22;25541;47.458;9.644;2022-11-11T05:36:55;5.80;99.90
38936;DHT22;25541;47.458;9.644;2022-11-11T05:39:20;5.80;99.90
38936;DHT22;25541;47.458;9.644;2022-11-11T05:41:46;5.80;99.90
38936;DHT22;25541;47.458;9.644;2022-11-11T05:44:11;5.80;99.90
38936;DHT22;25541;47.458;9.644;2022-11-11T05:46:37;5.80;99.90
38936;DHT22;25541;47.458;9.644;2022-11-11T05:49:03;5.80;99.90
38936;DHT22;25541;47.458;9.644;2022-11-11T05:51:44;5.80;99.90
38936;DHT22;25541;47.458;9.644;2022-11-11T05:54:10;5.80;99.90
38936;DHT22;25541;47.458;9.644;2022-11-11T05:56:36;5.80;99.90
38936;DHT22;25541;47.458;9.644;2022-11-11T05:59:02;5.80;99.90
38936;DHT22;25541;47.458;9.644;2022-11-11T06:01:27;5.80;99.90
38936;DHT22;25541;47.458;9.644;2022-11-11T06:03:53;5.80;99.90
38936;DHT22;25541;47.458;9.644;2022-11-11T06:06:19;5.80;99.90
38936;DHT22;25541;47.458;9.644;2022-11-11T06:08:44;5.70;99.90
38936;DHT22;25541;47.458;9.644;2022-11-11T06:11:10;5.80;99.90
38936;DHT22;25541;47.458;9.644;2022-11-11T06:13:36;5.80;99.90
38936;DHT22;25541;47.458;9.644;2022-11-11T06:16:03;5.80;99.90
38936;DHT22;25541;47.458;9.644;2022-11-11T06:18:28;5.80;99.90
38936;DHT22;25541;47.458;9.644;2022-11-11T06:20:55;5.90;99.90
38936;DHT22;25541;47.458;9.644;2022-11-11T06:23:22;6.00;99.90
38936;DHT22;25541;47.458;9.644;2022-11-11T06:25:48;6.20;99.90
38936;DHT22;25541;47.458;9.644;2022-11-11T06:28:32;6.30;99.90
38936;DHT22;25541;47.458;9.644;2022-11-11T06:30:58;6.50;99.90
38936;DHT22;25541;47.458;9.644;2022-11-11T06:33:24;6.60;99.90
38936;DHT22;25541;47.458;9.644;2022-11-11T06:35:49;6.80;99.90
38936;DHT22;25541;47.458;9.644;2022-11-11T06:38:16;6.90;99.90
38936;DHT22;25541;47.458;9.644;2022-11-11T06:40:42;7.00;99.90
38936;DHT22;25541;47.458;9.644;2022-11-11T06:43:09;7.00;99.90
38936;DHT22;25541;47.458;9.644;2022-11-11T06:45:35;7.10;99.90
38936;DHT22;25541;47.458;9.644;2022-11-11T06:48:04;7.20;99.90
38936;DHT22;25541;47.458;9.644;2022-11-11T06:50:34;7.20;99.90
38936;DHT22;25541;47.458;9.644;2022-11-11T06:53:11;7.20;99.90
38936;DHT22;25541;47.458;9.644;2022-11-11T06:55:37;7.30;99.90
38936;DHT22;25541;47.458;9.644;2022-11-11T06:58:11;7.30;99.90
38936;DHT22;25541;47.458;9.644;2022-11-11T07:00:37;7.40;99.90
38936;DHT22;25541;47.458;9.644;2022-11-11T07:03:05;7.50;99.90
38936;DHT22;25541;47.458;9.644;2022-11-11T07:05:32;7.60;99.90
38936;DHT22;25541;47.458;9.644;2022-11-11T07:08:06;7.70;99.90
38936;DHT22;25541;47.458;9.644;2022-11-11T07:10:33;7.80;99.90
38936;DHT22;25541;47.458;9.644;2022-11-11T07:12:59;7.80;99.90
38936;DHT22;25541;47.458;9.644;2022-11-11T07:15:25;7.90;99.90
38936;DHT22;25541;47.458;9.644;2022-11-11T07:17:51;7.90;99.90
38936;DHT22;25541;47.458;9.644;2022-11-11T07:20:16;8.00;99.90
38936;DHT22;25541;47.458;9.644;2022-11-11T07:22:42;8.00;99.90
38936;DHT22;25541;47.458;9.644;2022-11-11T07:25:08;8.20;99.90
38936;DHT22;25541;47.458;9.644;2022-11-11T07:27:38;8.40;99.90
38936;DHT22;25541;47.458;9.644;2022-11-11T07:30:05;8.50;99.90
38936;DHT22;25541;47.458;9.644;2022-11-11T07:32:31;8.70;99.90
38936;DHT22;25541;47.458;9.644;2022-11-11T07:34:56;8.90;99.90
38936;DHT22;25541;47.458;9.644;2022-11-11T07:37:22;9.10;99.90
38936;DHT22;25541;47.458;9.644;2022-11-11T07:39:48;9.20;99.90
38936;DHT22;25541;47.458;9.644;2022-11-11T07:42:13;9.20;99.90
38936;DHT22;25541;47.458;9.644;2022-11-11T07:44:40;9.20;99.90
38936;DHT22;25541;47.458;9.644;2022-11-11T07:47:05;9.10;99.90
38936;DHT22;25541;47.458;9.644;2022-11-11T07:49:31;9.10;99.90
38936;DHT22;25541;47.458;9.644;2022-11-11T07:51:57;9.20;99.90
38936;DHT22;25541;47.458;9.644;2022-11-11T07:54:23;9.20;99.90
38936;DHT22;25541;47.458;9.644;2022-11-11T07:56:48;9.40;99.90
38936;DHT22;25541;47.458;9.644;2022-11-11T07:59:14;9.60;99.90
38936;DHT22;25541;47.458;9.644;2022-11-11T08:01:40;9.90;99.90
38936;DHT22;25541;47.458;9.644;2022-11-11T08:04:05;10.20;98.20
38936;DHT22;25541;47.458;9.644;2022-11-11T08:06:31;10.40;98.30
38936;DHT22;25541;47.458;9.644;2022-11-11T08:08:57;10.60;96.50
38936;DHT22;25541;47.458;9.644;2022-11-11T08:11:22;10.70;95.50
38936;DHT22;25541;47.458;9.644;2022-11-11T08:14:07;10.80;94.70
38936;DHT22;25541;47.458;9.644;2022-11-11T08:16:33;11.00;93.30
38936;DHT22;25541;47.458;9.644;2022-11-11T08:18:59;11.60;91.90
38936;DHT22;25541;47.458;9.644;2022-11-11T08:21:25;12.40;91.10
38936;DHT22;25541;47.458;9.644;2022-11-11T08:23:51;13.40;86.10
38936;DHT22;25541;47.458;9.644;2022-11-11T08:26:18;14.00;82.50
38936;DHT22;25541;47.458;9.644;2022-11-11T08:28:44;14.20;82.10
38936;DHT22;25541;47.458;9.644;2022-11-11T08:31:10;14.40;80.50
38936;DHT22;25541;47.458;9.644;2022-11-11T08:33:36;14.50;78.80
38936;DHT22;25541;47.458;9.644;2022-11-11T08:36:02;14.50;78.10
38936;DHT22;25541;47.458;9.644;2022-11-11T08:38:28;14.40;78.10
38936;DHT22;25541;47.458;9.644;2022-11-11T08:40:54;14.30;78.10
38936;DHT22;25541;47.458;9.644;2022-11-11T08:43:23;14.20;79.80
38936;DHT22;25541;47.458;9.644;2022-11-11T08:45:53;14.10;80.40
38936;DHT22;25541;47.458;9.644;2022-11-11T08:48:19;14.00;80.60
38936;DHT22;25541;47.458;9.644;2022-11-11T08:50:45;13.90;81.20
38936;DHT22;25541;47.458;9.644;2022-11-11T08:53:10;13.70;81.40
38936;DHT22;25541;47.458;9.644;2022-11-11T08:55:36;13.60;82.00
38936;DHT22;25541;47.458;9.644;2022-11-11T08:58:04;13.70;82.20
38936;DHT22;25541;47.458;9.644;2022-11-11T09:00:31;13.50;82.60
38936;DHT22;25541;47.458;9.644;2022-11-11T09:03:09;13.60;82.50
38936;DHT22;25541;47.458;9.644;2022-11-11T09:05:37;13.40;81.40
38936;DHT22;25541;47.458;9.644;2022-11-11T09:08:05;13.40;82.40
38936;DHT22;25541;47.458;9.644;2022-11-11T09:10:33;13.40;82.40
38936;DHT22;25541;47.458;9.644;2022-11-11T09:12:59;13.20;82.40
38936;DHT22;25541;47.458;9.644;2022-11-11T09:15:25;13.20;82.60
38936;DHT22;25541;47.458;9.644;2022-11-11T09:17:52;13.40;81.90
38936;DHT22;25541;47.458;9.644;2022-11-11T09:20:18;13.70;82.30
38936;DHT22;25541;47.458;9.644;2022-11-11T09:22:45;13.90;81.10
38936;DHT22;25541;47.458;9.644;2022-11-11T09:25:12;14.00;81.20
38936;DHT22;25541;47.458;9.644;2022-11-11T09:27:37;14.10;81.30
38936;DHT22;25541;47.458;9.644;2022-11-11T09:30:04;14.20;81.40
38936;DHT22;25541;47.458;9.644;2022-11-11T09:32:30;14.20;79.10
38936;DHT22;25541;47.458;9.644;2022-11-11T09:34:56;14.00;80.10
38936;DHT22;25541;47.458;9.644;2022-11-11T09:37:22;14.00;79.70
38936;DHT22;25541;47.458;9.644;2022-11-11T09:39:48;14.00;80.40
38936;DHT22;25541;47.458;9.644;2022-11-11T09:42:30;14.10;79.30
38936;DHT22;25541;47.458;9.644;2022-11-11T09:46:28;14.00;78.20
38936;DHT22;25541;47.458;9.644;2022-11-11T09:48:37;13.80;79.90
38936;DHT22;25541;47.458;9.644;2022-11-11T09:51:11;13.80;79.70
38936;DHT22;25541;47.458;9.644;2022-11-11T09:53:45;13.60;80.10
38936;DHT22;25541;47.458;9.644;2022-11-11T09:56:17;13.50;81.00
38936;DHT22;25541;47.458;9.644;2022-11-11T09:58:48;13.30;81.10
38936;DHT22;25541;47.458;9.644;2022-11-11T10:01:20;13.30;82.10
38936;DHT22;25541;47.458;9.644;2022-11-11T10:04:38;13.30;81.20
38936;DHT22;25541;47.458;9.644;2022-11-11T10:06:37;13.30;81.30
38936;DHT22;25541;47.458;9.644;2022-11-11T10:09:24;13.20;82.00
38936;DHT22;25541;47.458;9.644;2022-11-11T10:12:18;13.20;82.40
38936;DHT22;25541;47.458;9.644;2022-11-11T10:14:46;13.30;82.70
38936;DHT22;25541;47.458;9.644;2022-11-11T10:17:32;13.50;81.20
38936;DHT22;25541;47.458;9.644;2022-11-11T10:20:22;13.50;80.70
38936;DHT22;25541;47.458;9.644;2022-11-11T10:22:52;13.60;81.40
38936;DHT22;25541;47.458;9.644;2022-11-11T10:25:25;13.70;80.10
38936;DHT22;25541;47.458;9.644;2022-11-11T10:27:53;14.00;80.50
38936;DHT22;25541;47.458;9.644;2022-11-11T10:30:26;14.10;79.30
38936;DHT22;25541;47.458;9.644;2022-11-11T10:33:08;14.20;79.50
38936;DHT22;25541;47.458;9.644;2022-11-11T10:35:38;14.20;79.60
38936;DHT22;25541;47.458;9.644;2022-11-11T10:43:52;14.40;79.40
38936;DHT22;25541;47.458;9.644;2022-11-11T10:46:31;14.40;78.10
38936;DHT22;25541;47.458;9.644;2022-11-11T10:49:07;14.40;78.70
38936;DHT22;25541;47.458;9.644;2022-11-11T10:51:48;14.30;79.20
38936;DHT22;25541;47.458;9.644;2022-11-11T10:54:20;14.50;78.10
38936;DHT22;25541;47.458;9.644;2022-11-11T10:57:04;14.60;78.90
38936;DHT22;25541;47.458;9.644;2022-11-11T10:59:50;14.60;78.20
38936;DHT22;25541;47.458;9.644;2022-11-11T11:02:39;14.60;78.40
38936;DHT22;25541;47.458;9.644;2022-11-11T11:07:50;14.60;80.20
38936;DHT22;25541;47.458;9.644;2022-11-11T11:10:33;14.60;78.80
38936;DHT22;25541;47.458;9.644;2022-11-11T11:15:27;14.70;79.40
38936;DHT22;25541;47.458;9.644;2022-11-11T11:18:08;14.70;78.40
38936;DHT22;25541;47.458;9.644;2022-11-11T11:20:36;14.80;78.10
38936;DHT22;25541;47.458;9.644;2022-11-11T11:23:02;14.80;77.60
38936;DHT22;25541;47.458;9.644;2022-11-11T11:25:31;14.80;79.40
38936;DHT22;25541;47.458;9.644;2022-11-11T11:28:11;14.70;77.20
38936;DHT22;25541;47.458;9.644;2022-11-11T11:30:37;14.70;78.90
38936;DHT22;25541;47.458;9.644;2022-11-11T11:33:05;14.60;78.70
38936;DHT22;25541;47.458;9.644;2022-11-11T11:35:42;14.60;78.10
38936;DHT22;25541;47.458;9.644;2022-11-11T11:38:11;14.60;78.60
38936;DHT22;25541;47.458;9.644;2022-11-11T11:41:06;14.40;79.60
38936;DHT22;25541;47.458;9.644;2022-11-11T11:43:34;14.30;78.70
38936;DHT22;25541;47.458;9.644;2022-11-11T11:46:03;14.30;79.20
38936;DHT22;25541;47.458;9.644;2022-11-11T11:51:26;14.10;79.90
38936;DHT22;25541;47.458;9.644;2022-11-11T11:56:52;14.10;80.30
38936;DHT22;25541;47.458;9.644;2022-11-11T12:02:13;13.80;80.90
38936;DHT22;25541;47.458;9.644;2022-11-11T12:04:57;13.90;80.90
38936;DHT22;25541;47.458;9.644;2022-11-11T12:12:39;13.40;82.70
38936;DHT22;25541;47.458;9.644;2022-11-11T12:15:23;13.40;83.50
38936;DHT22;25541;47.458;9.644;2022-11-11T12:18:26;13.20;83.90
38936;DHT22;25541;47.458;9.644;2022-11-11T12:21:01;13.10;84.60
38936;DHT22;25541;47.458;9.644;2022-11-11T12:26:14;12.90;85.80
38936;DHT22;25541;47.458;9.644;2022-11-11T12:31:59;12.90;86.00
38936;DHT22;25541;47.458;9.644;2022-11-11T12:40:42;12.80;87.40
38936;DHT22;25541;47.458;9.644;2022-11-11T12:49:07;12.80;86.80
38936;DHT22;25541;47.458;9.644;2022-11-11T12:54:30;12.70;87.80
38936;DHT22;25541;47.458;9.644;2022-11-11T13:00:07;12.50;88.20
38936;DHT22;25541;47.458;9.644;2022-11-11T13:05:23;12.20;89.90
38936;DHT22;25541;47.458;9.644;2022-11-11T13:08:07;12.00;90.10
38936;DHT22;25541;47.458;9.644;2022-11-11T13:13:50;12.00;90.60
38936;DHT22;25541;47.458;9.644;2022-11-11T13:16:22;12.00;90.50
38936;DHT22;25541;47.458;9.644;2022-11-11T13:24:35;12.10;90.50
38936;DHT22;25541;47.458;9.644;2022-11-11T13:30:04;12.40;90.30
38936;DHT22;25541;47.458;9.644;2022-11-11T13:32:45;12.50;90.20
38936;DHT22;25541;47.458;9.644;2022-11-11T13:35:42;12.60;91.00
38936;DHT22;25541;47.458;9.644;2022-11-11T13:40:53;12.60;89.60
38936;DHT22;25541;47.458;9.644;2022-11-11T13:43:44;12.60;89.70
38936;DHT22;25541;47.458;9.644;2022-11-11T13:48:55;12.60;89.50
38936;DHT22;25541;47.458;9.644;2022-11-11T13:51:39;12.50;89.40
38936;DHT22;25541;47.458;9.644;2022-11-11T13:54:20;12.40;89.50
38936;DHT22;25541;47.458;9.644;2022-11-11T13:56:47;12.30;90.00
38936;DHT22;25541;47.458;9.644;2022-11-11T13:59:37;12.10;90.30
38936;DHT22;25541;47.458;9.644;2022-11-11T14:02:31;12.10;90.50
38936;DHT22;25541;47.458;9.644;2022-11-11T14:15:41;11.70;91.10
38936;DHT22;25541;47.458;9.644;2022-11-11T14:20:56;11.70;91.40
38936;DHT22;25541;47.458;9.644;2022-11-11T14:28:58;11.70;91.50
38936;DHT22;25541;47.458;9.644;2022-11-11T14:36:56;11.50;91.70
38936;DHT22;25541;47.458;9.644;2022-11-11T14:39:51;11.40;91.90
38936;DHT22;25541;47.458;9.644;2022-11-11T14:45:02;11.30;92.40
38936;DHT22;25541;47.458;9.644;2022-11-11T14:47:40;11.30;92.30
38936;DHT22;25541;47.458;9.644;2022-11-11T14:52:53;11.20;92.60
38936;DHT22;25541;47.458;9.644;2022-11-11T14:55:25;11.20;92.70
38936;DHT22;25541;47.458;9.644;2022-11-11T14:58:07;11.20;92.80
38936;DHT22;25541;47.458;9.644;2022-11-11T15:00:45;11.20;92.80
38936;DHT22;25541;47.458;9.644;2022-11-11T15:03:20;11.10;92.90
38936;DHT22;25541;47.458;9.644;2022-11-11T15:05:57;11.00;93.20
38936;DHT22;25541;47.458;9.644;2022-11-11T15:11:01;11.00;93.10
38936;DHT22;25541;47.458;9.644;2022-11-11T15:21:35;10.80;93.60
38936;DHT22;25541;47.458;9.644;2022-11-11T15:24:27;10.70;93.90
38936;DHT22;25541;47.458;9.644;2022-11-11T15:27:49;10.60;94.20
38936;DHT22;25541;47.458;9.644;2022-11-11T15:30:17;10.50;94.10
38936;DHT22;25541;47.458;9.644;2022-11-11T15:33:02;10.40;94.50
38936;DHT22;25541;47.458;9.644;2022-11-11T15:38:05;10.30;94.70
38936;DHT22;25541;47.458;9.644;2022-11-11T15:40:52;10.20;94.90
38936;DHT22;25541;47.458;9.644;2022-11-11T15:43:22;10.20;95.00
38936;DHT22;25541;47.458;9.644;2022-11-11T15:45:52;10.10;95.40
38936;DHT22;25541;47.458;9.644;2022-11-11T15:48:37;10.10;95.90
38936;DHT22;25541;47.458;9.644;2022-11-11T15:53:46;9.90;96.00
38936;DHT22;25541;47.458;9.644;2022-11-11T15:56:26;9.80;96.20
38936;DHT22;25541;47.458;9.644;2022-11-11T15:58:52;9.70;96.50
38936;DHT22;25541;47.458;9.644;2022-11-11T16:01:22;9.70;96.70
38936;DHT22;25541;47.458;9.644;2022-11-11T16:03:49;9.60;97.30
38936;DHT22;25541;47.458;9.644;2022-11-11T16:06:16;9.60;98.20
38936;DHT22;25541;47.458;9.644;2022-11-11T16:08:43;9.40;98.90
38936;DHT22;25541;47.458;9.644;2022-11-11T16:11:13;9.40;98.70
38936;DHT22;25541;47.458;9.644;2022-11-11T16:13:50;9.30;99.50
38936;DHT22;25541;47.458;9.644;2022-11-11T16:16:23;9.30;99.80
38936;DHT22;25541;47.458;9.644;2022-11-11T16:18:55;9.30;99.40
38936;DHT22;25541;47.458;9.644;2022-11-11T16:23:51;9.20;99.90
38936;DHT22;25541;47.458;9.644;2022-11-11T16:26:17;9.20;99.90
38936;DHT22;25541;47.458;9.644;2022-11-11T16:28:54;9.10;99.90
38936;DHT22;25541;47.458;9.644;2022-11-11T16:31:21;9.10;99.90
38936;DHT22;25541;47.458;9.644;2022-11-11T16:33:47;9.10;99.90
38936;DHT22;25541;47.458;9.644;2022-11-11T16:36:12;9.00;99.90
38936;DHT22;25541;47.458;9.644;2022-11-11T16:38:38;9.00;99.90
38936;DHT22;25541;47.458;9.644;2022-11-11T16:41:42;8.90;99.90
38936;DHT22;25541;47.458;9.644;2022-11-11T16:46:57;8.80;99.90
38936;DHT22;25541;47.458;9.644;2022-11-11T16:49:39;8.80;99.90
38936;DHT22;25541;47.458;9.644;2022-11-11T16:52:13;8.70;99.90
38936;DHT22;25541;47.458;9.644;2022-11-11T16:54:48;8.70;99.90
38936;DHT22;25541;47.458;9.644;2022-11-11T16:57:20;8.70;99.90
38936;DHT22;25541;47.458;9.644;2022-11-11T16:59:50;8.60;99.90
38936;DHT22;25541;47.458;9.644;2022-11-11T17:02:20;8.70;99.90
38936;DHT22;25541;47.458;9.644;2022-11-11T17:04:48;8.60;99.90
38936;DHT22;25541;47.458;9.644;2022-11-11T17:07:36;8.50;99.90
38936;DHT22;25541;47.458;9.644;2022-11-11T17:10:17;8.50;99.90
38936;DHT22;25541;47.458;9.644;2022-11-11T17:12:43;8.50;99.90
38936;DHT22;25541;47.458;9.644;2022-11-11T17:15:14;8.50;99.90
38936;DHT22;25541;47.458;9.644;2022-11-11T17:17:42;8.50;99.90
38936;DHT22;25541;47.458;9.644;2022-11-11T17:20:15;8.40;99.90
38936;DHT22;25541;47.458;9.644;2022-11-11T17:22:54;8.40;99.90
38936;DHT22;25541;47.458;9.644;2022-11-11T17:25:20;8.50;99.90
38936;DHT22;25541;47.458;9.644;2022-11-11T17:27:46;8.50;99.90
38936;DHT22;25541;47.458;9.644;2022-11-11T17:30:12;8.60;99.90
38936;DHT22;25541;47.458;9.644;2022-11-11T17:32:39;8.60;99.90
38936;DHT22;25541;47.458;9.644;2022-11-11T17:35:05;8.60;99.90
38936;DHT22;25541;47.458;9.644;2022-11-11T17:37:35;8.70;99.90
38936;DHT22;25541;47.458;9.644;2022-11-11T17:40:04;8.60;99.90
38936;DHT22;25541;47.458;9.644;2022-11-11T17:42:31;8.60;99.90
38936;DHT22;25541;47.458;9.644;2022-11-11T17:44:56;8.60;99.90
38936;DHT22;25541;47.458;9.644;2022-11-11T17:47:22;8.50;99.90
38936;DHT22;25541;47.458;9.644;2022-11-11T17:49:48;8.50;99.90
38936;DHT22;25541;47.458;9.644;2022-11-11T17:52:14;8.50;99.90
38936;DHT22;25541;47.458;9.644;2022-11-11T17:54:40;8.50;99.90
38936;DHT22;25541;47.458;9.644;2022-11-11T17:57:06;8.50;99.90
38936;DHT22;25541;47.458;9.644;2022-11-11T17:59:31;8.40;99.90
38936;DHT22;25541;47.458;9.644;2022-11-11T18:01:57;8.40;99.90
38936;DHT22;25541;47.458;9.644;2022-11-11T18:04:23;8.40;99.90
38936;DHT22;25541;47.458;9.644;2022-11-11T18:06:49;8.30;99.90
38936;DHT22;25541;47.458;9.644;2022-11-11T18:09:15;8.30;99.90
38936;DHT22;25541;47.458;9.644;2022-11-11T18:11:41;8.30;99.90
38936;DHT22;25541;47.458;9.644;2022-11-11T18:14:06;8.20;99.90
38936;DHT22;25541;47.458;9.644;2022-11-11T18:16:32;8.20;99.90
38936;DHT22;25541;47.458;9.644;2022-11-11T18:18:58;8.20;99.90
38936;DHT22;25541;47.458;9.644;2022-11-11T18:21:27;8.20;99.90
38936;DHT22;25541;47.458;9.644;2022-11-11T18:23:53;8.20;99.90
38936;DHT22;25541;47.458;9.644;2022-11-11T18:26:19;8.10;99.90
38936;DHT22;25541;47.458;9.644;2022-11-11T18:28:45;8.10;99.90
38936;DHT22;25541;47.458;9.644;2022-11-11T18:31:12;8.10;99.90
38936;DHT22;25541;47.458;9.644;2022-11-11T18:33:39;8.20;99.90
38936;DHT22;25541;47.458;9.644;2022-11-11T18:36:10;8.20;99.90
38936;DHT22;25541;47.458;9.644;2022-11-11T18:38:36;8.20;99.90
38936;DHT22;25541;47.458;9.644;2022-11-11T18:41:03;8.30;99.90
38936;DHT22;25541;47.458;9.644;2022-11-11T18:43:49;8.30;99.90
38936;DHT22;25541;47.458;9.644;2022-11-11T18:46:22;8.20;99.90
38936;DHT22;25541;47.458;9.644;2022-11-11T18:48:55;8.20;99.90
38936;DHT22;25541;47.458;9.644;2022-11-11T18:51:21;8.10;99.90
38936;DHT22;25541;47.458;9.644;2022-11-11T18:53:48;8.00;99.90
38936;DHT22;25541;47.458;9.644;2022-11-11T18:56:19;8.00;99.90
38936;DHT22;25541;47.458;9.644;2022-11-11T18:58:49;7.90;99.90
38936;DHT22;25541;47.458;9.644;2022-11-11T19:01:17;7.80;99.90
38936;DHT22;25541;47.458;9.644;2022-11-11T19:03:51;7.80;99.90
38936;DHT22;25541;47.458;9.644;2022-11-11T19:06:17;7.70;99.90
38936;DHT22;25541;47.458;9.644;2022-11-11T19:08:46;7.60;99.90
38936;DHT22;25541;47.458;9.644;2022-11-11T19:11:11;7.60;99.90
38936;DHT22;25541;47.458;9.644;2022-11-11T19:13:37;7.60;99.90
38936;DHT22;25541;47.458;9.644;2022-11-11T19:16:22;7.50;99.90
38936;DHT22;25541;47.458;9.644;2022-11-11T19:18:49;7.40;99.90
38936;DHT22;25541;47.458;9.644;2022-11-11T19:21:17;7.40;99.90
38936;DHT22;25541;47.458;9.644;2022-11-11T19:23:45;7.30;99.90
38936;DHT22;25541;47.458;9.644;2022-11-11T19:26:11;7.30;99.90
38936;DHT22;25541;47.458;9.644;2022-11-11T19:28:38;7.30;99.90
38936;DHT22;25541;47.458;9.644;2022-11-11T19:31:06;7.30;99.90
38936;DHT22;25541;47.458;9.644;2022-11-11T19:33:33;7.30;99.90
38936;DHT22;25541;47.458;9.644;2022-11-11T19:36:05;7.30;99.90
38936;DHT22;25541;47.458;9.644;2022-11-11T19:38:31;7.20;99.90
38936;DHT22;25541;47.458;9.644;2022-11-11T19:40:57;7.20;99.90
38936;DHT22;25541;47.458;9.644;2022-11-11T19:43:23;7.20;99.90
38936;DHT22;25541;47.458;9.644;2022-11-11T19:45:50;7.20;99.90
38936;DHT22;25541;47.458;9.644;2022-11-11T19:48:15;7.20;99.90
38936;DHT22;25541;47.458;9.644;2022-11-11T19:50:41;7.10;99.90
38936;DHT22;25541;47.458;9.644;2022-11-11T19:53:10;7.10;99.90
38936;DHT22;25541;47.458;9.644;2022-11-11T19:55:36;7.10;99.90
38936;DHT22;25541;47.458;9.644;2022-11-11T19:58:02;7.10;99.90
38936;DHT22;25541;47.458;9.644;2022-11-11T20:00:27;7.10;99.90
38936;DHT22;25541;47.458;9.644;2022-11-11T20:02:54;7.10;99.90
38936;DHT22;25541;47.458;9.644;2022-11-11T20:05:21;7.00;99.90
38936;DHT22;25541;47.458;9.644;2022-11-11T20:07:47;7.00;99.90
38936;DHT22;25541;47.458;9.644;2022-11-11T20:10:13;7.00;99.90
38936;DHT22;25541;47.458;9.644;2022-11-11T20:12:39;7.00;99.90
38936;DHT22;25541;47.458;9.644;2022-11-11T20:15:05;7.00;99.90
38936;DHT22;25541;47.458;9.644;2022-11-11T20:17:30;7.00;99.90
38936;DHT22;25541;47.458;9.644;2022-11-11T20:19:56;7.00;99.90
38936;DHT22;25541;47.458;9.644;2022-11-11T20:22:22;7.00;99.90
38936;DHT22;25541;47.458;9.644;2022-11-11T20:24:48;7.00;99.90
38936;DHT22;25541;47.458;9.644;2022-11-11T20:27:13;6.90;99.90
38936;DHT22;25541;47.458;9.644;2022-11-11T20:29:39;6.90;99.90
38936;DHT22;25541;47.458;9.644;2022-11-11T20:32:05;6.90;99.90
38936;DHT22;25541;47.458;9.644;2022-11-11T20:34:30;6.80;99.90
38936;DHT22;25541;47.458;9.644;2022-11-11T20:36:59;6.80;99.90
38936;DHT22;25541;47.458;9.644;2022-11-11T20:39:24;6.80;99.90
38936;DHT22;25541;47.458;9.644;2022-11-11T20:41:50;6.70;99.90
38936;DHT22;25541;47.458;9.644;2022-11-11T20:44:15;6.70;99.90
38936;DHT22;25541;47.458;9.644;2022-11-11T20:46:41;6.60;99.90
38936;DHT22;25541;47.458;9.644;2022-11-11T20:49:07;6.60;99.90
38936;DHT22;25541;47.458;9.644;2022-11-11T20:51:32;6.60;99.90
38936;DHT22;25541;47.458;9.644;2022-11-11T20:53:58;6.60;99.90
38936;DHT22;25541;47.458;9.644;2022-11-11T20:56:25;6.60;99.90
38936;DHT22;25541;47.458;9.644;2022-11-11T20:58:51;6.60;99.90
38936;DHT22;25541;47.458;9.644;2022-11-11T21:01:25;6.60;99.90
38936;DHT22;25541;47.458;9.644;2022-11-11T21:03:58;6.50;99.90
38936;DHT22;25541;47.458;9.644;2022-11-11T21:06:25;6.50;99.90
38936;DHT22;25541;47.458;9.644;2022-11-11T21:08:52;6.50;99.90
38936;DHT22;25541;47.458;9.644;2022-11-11T21:11:19;6.40;99.90
38936;DHT22;25541;47.458;9.644;2022-11-11T21:13:46;6.40;99.90
38936;DHT22;25541;47.458;9.644;2022-11-11T21:16:18;6.40;99.90
38936;DHT22;25541;47.458;9.644;2022-11-11T21:18:44;6.50;99.90
38936;DHT22;25541;47.458;9.644;2022-11-11T21:21:32;6.50;99.90
38936;DHT22;25541;47.458;9.644;2022-11-11T21:24:02;6.50;99.90
38936;DHT22;25541;47.458;9.644;2022-11-11T21:26:28;6.60;99.90
38936;DHT22;25541;47.458;9.644;2022-11-11T21:28:55;6.60;99.90
38936;DHT22;25541;47.458;9.644;2022-11-11T21:31:25;6.70;99.90
38936;DHT22;25541;47.458;9.644;2022-11-11T21:36:48;6.80;99.90
38936;DHT22;25541;47.458;9.644;2022-11-11T21:39:13;6.90;99.90
38936;DHT22;25541;47.458;9.644;2022-11-11T21:41:40;7.00;99.90
38936;DHT22;25541;47.458;9.644;2022-11-11T21:44:08;7.00;99.90
38936;DHT22;25541;47.458;9.644;2022-11-11T21:46:35;7.00;99.90
38936;DHT22;25541;47.458;9.644;2022-11-11T21:49:02;7.10;99.90
38936;DHT22;25541;47.458;9.644;2022-11-11T21:51:30;7.10;99.90
38936;DHT22;25541;47.458;9.644;2022-11-11T21:54:04;7.00;99.90
38936;DHT22;25541;47.458;9.644;2022-11-11T21:56:32;7.10;99.90
38936;DHT22;25541;47.458;9.644;2022-11-11T21:58:59;7.00;99.90